createdAt,value
2022-08-27T00:00:33.545Z,17.40
2022-08-27T00:03:01.851Z,17.40
2022-08-27T00:05:28.877Z,17.50
2022-08-27T00:07:55.605Z,17.50
2022-08-27T00:10:25.137Z,17.50
2022-08-27T00:12:52.565Z,17.60
2022-08-27T00:15:19.967Z,17.60
2022-08-27T00:17:47.401Z,17.70
2022-08-27T00:20:18.822Z,17.70
2022-08-27T00:22:45.536Z,17.70
2022-08-27T00:25:13.681Z,17.80
2022-08-27T00:27:40.839Z,17.70
2022-08-27T00:30:12.949Z,17.70
2022-08-27T00:32:42.542Z,17.70
2022-08-27T00:35:10.703Z,17.70
2022-08-27T00:37:38.067Z,17.80
2022-08-27T00:40:09.673Z,17.80
2022-08-27T00:42:36.646Z,17.80
2022-08-27T00:45:06.168Z,17.80
2022-08-27T00:47:40.525Z,17.70
2022-08-27T00:50:16.299Z,17.70
2022-08-27T00:52:55.451Z,17.70
2022-08-27T00:55:29.796Z,17.70
2022-08-27T00:58:16.566Z,17.70
2022-08-27T01:00:45.285Z,17.70
2022-08-27T01:03:12.732Z,17.60
2022-08-27T01:05:40.103Z,17.70
2022-08-27T01:08:11.789Z,17.60
2022-08-27T01:10:40.230Z,17.60
2022-08-27T01:13:09.047Z,17.60
2022-08-27T01:15:35.973Z,17.70
2022-08-27T01:18:06.943Z,17.70
2022-08-27T01:20:49.488Z,17.70
2022-08-27T01:23:39.024Z,17.70
2022-08-27T01:26:08.206Z,17.70
2022-08-27T01:28:37.582Z,17.70
2022-08-27T01:31:10.692Z,17.70
2022-08-27T01:33:37.883Z,17.70
2022-08-27T01:36:05.161Z,17.60
2022-08-27T01:38:32.852Z,17.60
2022-08-27T01:41:01.247Z,17.60
2022-08-27T01:43:29.244Z,17.60
2022-08-27T01:45:55.970Z,17.60
2022-08-27T01:48:22.739Z,17.70
2022-08-27T01:50:49.819Z,17.60
2022-08-27T01:53:20.189Z,17.60
2022-08-27T01:55:48.580Z,17.50
2022-08-27T01:58:15.920Z,17.50
2022-08-27T02:00:45.788Z,17.50
2022-08-27T02:03:12.714Z,17.50
2022-08-27T02:05:44.976Z,17.50
2022-08-27T02:08:13.275Z,17.50
2022-08-27T02:10:40.529Z,17.60
2022-08-27T02:13:08.157Z,17.60
2022-08-27T02:15:36.238Z,17.60
2022-08-27T02:18:05.024Z,17.60
2022-08-27T02:20:31.855Z,17.50
2022-08-27T02:22:59.010Z,17.50
2022-08-27T02:25:27.533Z,17.50
2022-08-27T02:28:00.146Z,17.40
2022-08-27T02:30:28.309Z,17.50
2022-08-27T02:32:55.329Z,17.50
2022-08-27T02:35:24.131Z,17.50
2022-08-27T02:37:51.670Z,17.50
2022-08-27T02:40:21.923Z,17.40
2022-08-27T02:42:48.790Z,17.40
2022-08-27T02:45:16.645Z,17.40
2022-08-27T02:47:43.554Z,17.40
2022-08-27T02:50:10.947Z,17.40
2022-08-27T02:52:38.073Z,17.40
2022-08-27T02:55:05.651Z,17.40
2022-08-27T02:57:36.611Z,17.40
2022-08-27T03:00:08.703Z,17.40
2022-08-27T03:02:36.936Z,17.30
2022-08-27T03:05:05.127Z,17.20
2022-08-27T03:07:31.844Z,17.10
2022-08-27T03:09:58.798Z,17.20
2022-08-27T03:12:25.556Z,17.20
2022-08-27T03:14:52.355Z,17.20
2022-08-27T03:17:37.887Z,17.30
2022-08-27T03:20:06.469Z,17.30
2022-08-27T03:22:33.147Z,17.40
2022-08-27T03:25:02.237Z,17.30
2022-08-27T03:27:28.917Z,17.30
2022-08-27T03:29:55.592Z,17.30
2022-08-27T03:32:22.315Z,17.20
2022-08-27T03:34:49.043Z,17.20
2022-08-27T03:37:16.260Z,17.20
2022-08-27T03:39:42.948Z,17.20
2022-08-27T03:42:10.442Z,17.20
2022-08-27T03:44:37.115Z,17.30
2022-08-27T03:47:04.071Z,17.30
2022-08-27T03:49:31.602Z,17.40
2022-08-27T03:51:59.907Z,17.40
2022-08-27T03:54:26.665Z,17.40
2022-08-27T03:56:53.432Z,17.40
2022-08-27T03:59:20.117Z,17.50
2022-08-27T04:01:47.297Z,17.50
2022-08-27T04:04:14.187Z,17.50
2022-08-27T04:06:41.517Z,17.40
2022-08-27T04:09:08.466Z,17.40
2022-08-27T04:11:35.423Z,17.50
2022-08-27T04:14:26.155Z,17.50
2022-08-27T04:16:51.518Z,17.50
2022-08-27T04:19:20.019Z,17.40
2022-08-27T04:21:48.910Z,17.40
2022-08-27T04:24:15.995Z,17.40
2022-08-27T04:26:45.641Z,17.40
2022-08-27T04:29:12.347Z,17.40
2022-08-27T04:31:39.100Z,17.40
2022-08-27T04:34:07.658Z,17.40
2022-08-27T04:36:34.390Z,17.40
2022-08-27T04:39:01.320Z,17.30
2022-08-27T04:41:28.964Z,17.40
2022-08-27T04:43:58.082Z,17.40
2022-08-27T04:46:31.066Z,17.50
2022-08-27T04:49:00.289Z,17.50
2022-08-27T04:51:28.947Z,17.50
2022-08-27T04:53:56.327Z,17.50
2022-08-27T04:56:23.922Z,17.50
2022-08-27T04:58:51.602Z,17.50
2022-08-27T05:01:21.117Z,17.60
2022-08-27T05:03:48.179Z,17.60
2022-08-27T05:06:15.135Z,17.50
2022-08-27T05:08:42.285Z,17.50
2022-08-27T05:11:14.964Z,17.60
2022-08-27T05:13:43.364Z,17.60
2022-08-27T05:16:13.339Z,17.70
2022-08-27T05:18:44.283Z,17.60
2022-08-27T05:21:23.867Z,17.60
2022-08-27T05:23:52.323Z,17.70
2022-08-27T05:26:19.746Z,17.60
2022-08-27T05:28:46.751Z,17.60
2022-08-27T05:31:14.935Z,17.60
2022-08-27T05:33:42.654Z,17.50
2022-08-27T05:36:28.163Z,17.60
2022-08-27T05:38:56.821Z,17.60
2022-08-27T05:41:34.073Z,17.60
2022-08-27T05:44:24.015Z,17.60
2022-08-27T05:46:51.241Z,17.60
2022-08-27T05:49:18.400Z,17.60
2022-08-27T05:51:45.210Z,17.70
2022-08-27T05:54:19.030Z,17.70
2022-08-27T05:56:46.086Z,17.80
2022-08-27T05:59:31.666Z,17.80
2022-08-27T06:02:01.921Z,17.80
2022-08-27T06:04:28.743Z,17.80
2022-08-27T06:06:55.482Z,17.90
2022-08-27T06:09:25.384Z,18.00
2022-08-27T06:11:56.133Z,18.00
2022-08-27T06:14:25.103Z,18.10
2022-08-27T06:16:52.217Z,18.10
2022-08-27T06:19:19.382Z,18.10
2022-08-27T06:21:46.842Z,18.10
2022-08-27T06:24:28.851Z,18.10
2022-08-27T06:26:56.663Z,18.10
2022-08-27T06:29:25.039Z,18.10
2022-08-27T06:31:52.943Z,18.10
2022-08-27T06:34:19.685Z,18.10
2022-08-27T06:36:46.401Z,18.20
2022-08-27T06:39:15.363Z,18.20
2022-08-27T06:41:44.082Z,18.10
2022-08-27T06:44:12.555Z,18.20
2022-08-27T06:46:39.801Z,18.20
2022-08-27T06:49:07.601Z,18.00
2022-08-27T06:51:38.068Z,17.90
2022-08-27T06:54:09.483Z,18.00
2022-08-27T06:56:36.570Z,18.00
2022-08-27T06:59:12.112Z,18.10
2022-08-27T07:01:42.532Z,18.10
2022-08-27T07:04:12.727Z,18.20
2022-08-27T07:06:40.387Z,18.20
2022-08-27T07:09:08.451Z,18.20
2022-08-27T07:11:38.227Z,18.30
2022-08-27T07:14:06.245Z,18.30
2022-08-27T07:16:33.087Z,18.30
2022-08-27T07:19:04.208Z,18.30
2022-08-27T07:21:32.677Z,18.40
2022-08-27T07:24:04.445Z,18.40
2022-08-27T07:26:35.795Z,18.50
2022-08-27T07:29:05.108Z,18.40
2022-08-27T07:31:32.424Z,18.50
2022-08-27T07:33:59.095Z,18.50
2022-08-27T07:36:26.092Z,18.60
2022-08-27T07:38:59.149Z,18.60
2022-08-27T07:41:30.515Z,18.70
2022-08-27T07:44:20.843Z,18.80
2022-08-27T07:46:49.477Z,18.80
2022-08-27T07:49:19.107Z,18.80
2022-08-27T07:51:46.205Z,18.90
2022-08-27T07:54:14.579Z,18.80
2022-08-27T07:56:41.706Z,18.70
2022-08-27T07:59:08.453Z,18.80
2022-08-27T08:01:35.724Z,18.90
2022-08-27T08:04:02.781Z,18.80
2022-08-27T08:06:29.669Z,18.90
2022-08-27T08:08:56.362Z,19.00
2022-08-27T08:11:23.275Z,18.90
2022-08-27T08:13:50.002Z,19.00
2022-08-27T08:16:16.909Z,19.20
2022-08-27T08:18:43.654Z,19.20
2022-08-27T08:21:14.182Z,19.30
2022-08-27T08:23:42.323Z,19.50
2022-08-27T08:26:09.963Z,19.60
2022-08-27T08:28:37.069Z,19.60
2022-08-27T08:31:04.238Z,19.50
2022-08-27T08:33:31.677Z,19.50
2022-08-27T08:36:10.899Z,19.60
2022-08-27T08:38:38.656Z,19.60
2022-08-27T08:41:07.630Z,19.70
2022-08-27T08:43:49.459Z,19.70
2022-08-27T08:46:22.506Z,19.80
2022-08-27T08:48:55.472Z,19.80
2022-08-27T08:51:40.600Z,19.80
2022-08-27T08:54:18.241Z,19.80
2022-08-27T08:56:57.217Z,19.90
2022-08-27T08:59:31.505Z,19.90
2022-08-27T09:01:58.647Z,19.90
2022-08-27T09:04:27.426Z,19.80
2022-08-27T09:07:24.968Z,19.90
2022-08-27T09:10:14.394Z,20.10
2022-08-27T09:12:41.709Z,20.20
2022-08-27T09:15:14.297Z,20.30
2022-08-27T09:17:42.120Z,20.30
2022-08-27T09:20:13.107Z,20.40
2022-08-27T09:23:17.369Z,20.40
2022-08-27T09:25:44.721Z,20.40
2022-08-27T09:28:34.268Z,20.50
2022-08-27T09:31:06.465Z,20.60
2022-08-27T09:33:54.977Z,20.70
2022-08-27T09:36:23.700Z,20.70
2022-08-27T09:38:58.044Z,20.80
2022-08-27T09:41:31.694Z,20.90
2022-08-27T09:44:11.812Z,21.00
2022-08-27T09:46:38.679Z,21.10
2022-08-27T09:49:16.400Z,21.10
2022-08-27T09:51:46.906Z,21.30
2022-08-27T09:54:39.566Z,21.20
2022-08-27T09:57:08.054Z,21.00
2022-08-27T09:59:53.896Z,21.00
2022-08-27T10:02:23.449Z,21.10
2022-08-27T10:05:01.362Z,21.30
2022-08-27T10:07:52.456Z,21.50
2022-08-27T10:10:49.275Z,21.70
2022-08-27T10:13:20.868Z,21.90
2022-08-27T10:16:16.723Z,22.00
2022-08-27T10:19:07.752Z,22.00
2022-08-27T10:21:44.554Z,22.00
2022-08-27T10:24:18.115Z,22.00
2022-08-27T10:27:01.055Z,21.80
2022-08-27T10:29:51.914Z,21.70
2022-08-27T10:32:52.901Z,21.70
2022-08-27T10:35:27.086Z,21.40
2022-08-27T10:38:15.065Z,21.40
2022-08-27T10:40:52.474Z,21.60
2022-08-27T10:43:40.423Z,21.80
2022-08-27T10:46:34.923Z,21.80
2022-08-27T10:49:04.675Z,21.90
2022-08-27T10:51:41.580Z,21.90
2022-08-27T10:54:27.634Z,22.10
2022-08-27T10:57:40.247Z,22.40
2022-08-27T11:00:13.104Z,22.60
2022-08-27T11:02:45.233Z,23.00
2022-08-27T11:05:24.029Z,23.20
2022-08-27T11:07:56.120Z,23.60
2022-08-27T11:10:32.759Z,22.90
2022-08-27T11:13:06.435Z,23.30
2022-08-27T11:15:36.792Z,23.20
2022-08-27T11:18:25.133Z,23.30
2022-08-27T11:21:02.472Z,23.70
2022-08-27T11:24:02.549Z,23.50
2022-08-27T11:26:33.321Z,23.30
2022-08-27T11:29:13.831Z,23.20
2022-08-27T11:31:49.160Z,23.30
2022-08-27T11:34:34.391Z,23.30
2022-08-27T11:37:27.804Z,23.10
2022-08-27T11:40:10.168Z,23.00
2022-08-27T11:42:43.044Z,23.00
2022-08-27T11:45:22.179Z,23.10
2022-08-27T11:47:57.374Z,23.20
2022-08-27T11:50:27.226Z,23.20
2022-08-27T11:53:05.673Z,23.10
2022-08-27T11:55:38.354Z,22.80
2022-08-27T11:58:29.652Z,22.40
2022-08-27T12:01:00.990Z,22.70
2022-08-27T12:03:33.385Z,23.10
2022-08-27T12:06:09.414Z,23.30
2022-08-27T12:08:37.034Z,23.40
2022-08-27T12:11:39.718Z,23.30
2022-08-27T12:14:14.302Z,23.30
2022-08-27T12:16:54.478Z,23.60
2022-08-27T12:19:26.234Z,23.60
2022-08-27T12:22:04.884Z,23.80
2022-08-27T12:24:51.903Z,23.90
2022-08-27T12:27:22.353Z,23.40
2022-08-27T12:30:18.171Z,22.50
2022-08-27T12:32:46.960Z,22.20
2022-08-27T12:35:39.957Z,22.10
2022-08-27T12:38:37.619Z,22.00
2022-08-27T12:41:09.316Z,21.80
2022-08-27T12:43:39.311Z,21.50
2022-08-27T12:46:16.875Z,21.10
2022-08-27T12:48:47.199Z,20.70
2022-08-27T12:51:24.138Z,20.50
2022-08-27T12:54:30.212Z,20.20
2022-08-27T12:57:18.078Z,20.10
2022-08-27T13:00:26.574Z,19.80
2022-08-27T13:03:23.776Z,19.40
2022-08-27T13:05:56.625Z,19.20
2022-08-27T13:08:26.568Z,19.30
2022-08-27T13:10:53.700Z,19.40
2022-08-27T13:13:23.907Z,19.40
2022-08-27T13:15:57.012Z,19.30
2022-08-27T13:18:24.671Z,18.50
2022-08-27T13:21:28.135Z,18.40
2022-08-27T13:23:59.387Z,18.50
2022-08-27T13:26:29.437Z,18.50
2022-08-27T13:29:02.602Z,18.20
2022-08-27T13:31:31.303Z,18.00
2022-08-27T13:33:59.166Z,17.80
2022-08-27T13:36:32.330Z,17.60
2022-08-27T13:39:02.543Z,17.70
2022-08-27T13:41:35.508Z,17.60
2022-08-27T13:44:10.482Z,17.60
2022-08-27T13:46:48.631Z,17.70
2022-08-27T13:49:22.461Z,17.70
2022-08-27T13:51:57.801Z,17.70
2022-08-27T13:54:24.602Z,17.70
2022-08-27T13:56:55.074Z,17.80
2022-08-27T13:59:24.159Z,17.80
2022-08-27T14:02:09.532Z,17.70
2022-08-27T14:04:43.351Z,17.70
2022-08-27T14:07:23.743Z,17.60
2022-08-27T14:09:57.217Z,17.60
2022-08-27T14:12:39.923Z,17.60
2022-08-27T14:15:23.949Z,17.60
2022-08-27T14:17:51.148Z,17.70
2022-08-27T14:20:22.570Z,17.80
2022-08-27T14:22:49.985Z,17.80
2022-08-27T14:25:18.086Z,17.80
2022-08-27T14:27:54.302Z,17.70
2022-08-27T14:30:28.970Z,17.70
2022-08-27T14:32:59.064Z,17.70
2022-08-27T14:35:26.296Z,17.60
2022-08-27T14:37:54.164Z,17.60
2022-08-27T14:40:21.051Z,17.60
2022-08-27T14:42:47.828Z,17.70
2022-08-27T14:45:15.115Z,17.80
2022-08-27T14:47:43.651Z,17.80
2022-08-27T14:50:12.832Z,17.80
2022-08-27T14:52:40.715Z,17.80
2022-08-27T14:55:10.875Z,17.60
2022-08-27T14:57:37.975Z,17.60
2022-08-27T15:00:07.325Z,17.60
2022-08-27T15:02:35.054Z,17.60
2022-08-27T15:05:03.366Z,17.70
2022-08-27T15:07:38.212Z,17.70
2022-08-27T15:10:06.294Z,17.70
2022-08-27T15:12:33.199Z,17.60
2022-08-27T15:14:59.983Z,17.50
2022-08-27T15:17:35.075Z,17.50
2022-08-27T15:20:07.433Z,17.50
2022-08-27T15:22:38.743Z,17.70
2022-08-27T15:25:10.943Z,17.70
2022-08-27T15:27:39.233Z,17.70
2022-08-27T15:30:09.785Z,17.90
2022-08-27T15:32:41.313Z,18.00
2022-08-27T15:35:13.723Z,18.20
2022-08-27T15:37:41.906Z,18.20
2022-08-27T15:40:10.304Z,18.30
2022-08-27T15:42:37.320Z,18.40
2022-08-27T15:45:05.267Z,18.50
2022-08-27T15:47:32.104Z,18.60
2022-08-27T15:49:59.128Z,18.60
2022-08-27T15:52:26.071Z,18.70
2022-08-27T15:55:12.634Z,18.80
2022-08-27T15:57:40.131Z,18.90
2022-08-27T16:00:07.475Z,19.10
2022-08-27T16:02:34.231Z,19.20
2022-08-27T16:05:00.995Z,19.30
2022-08-27T16:07:28.369Z,19.30
2022-08-27T16:09:55.106Z,19.30
2022-08-27T16:12:22.374Z,19.20
2022-08-27T16:14:55.334Z,19.30
2022-08-27T16:17:23.539Z,19.40
2022-08-27T16:19:50.339Z,19.40
2022-08-27T16:22:17.125Z,19.40
2022-08-27T16:24:44.255Z,19.30
2022-08-27T16:27:11.302Z,19.30
2022-08-27T16:29:38.147Z,19.20
2022-08-27T16:32:08.625Z,19.10
2022-08-27T16:34:35.353Z,19.00
2022-08-27T16:37:02.037Z,18.90
2022-08-27T16:39:33.761Z,18.80
2022-08-27T16:42:03.442Z,18.60
2022-08-27T16:44:31.440Z,18.50
2022-08-27T16:46:58.163Z,18.50
2022-08-27T16:49:43.311Z,18.30
2022-08-27T16:52:10.145Z,18.00
2022-08-27T16:54:37.714Z,17.80
2022-08-27T16:57:04.685Z,17.80
2022-08-27T16:59:31.393Z,17.70
2022-08-27T17:01:58.245Z,17.70
2022-08-27T17:04:30.478Z,17.80
2022-08-27T17:06:59.337Z,17.80
2022-08-27T17:09:26.250Z,17.80
2022-08-27T17:11:56.981Z,17.80
2022-08-27T17:14:24.069Z,17.80
2022-08-27T17:16:53.801Z,17.80
2022-08-27T17:19:22.314Z,17.70
2022-08-27T17:21:50.014Z,17.70
2022-08-27T17:24:17.443Z,17.70
2022-08-27T17:26:44.858Z,17.60
2022-08-27T17:29:12.032Z,17.40
2022-08-27T17:31:41.491Z,17.40
2022-08-27T17:34:15.102Z,17.30
2022-08-27T17:36:44.202Z,17.40
2022-08-27T17:39:12.027Z,17.40
2022-08-27T17:41:44.846Z,17.40
2022-08-27T17:44:23.173Z,17.50
2022-08-27T17:46:51.663Z,17.50
2022-08-27T17:49:18.698Z,17.50
2022-08-27T17:51:48.422Z,17.50
2022-08-27T17:54:33.092Z,17.40
2022-08-27T17:57:01.463Z,17.30
2022-08-27T17:59:28.860Z,17.20
2022-08-27T18:01:57.011Z,17.10
2022-08-27T18:04:24.215Z,17.00
2022-08-27T18:06:51.062Z,17.10
2022-08-27T18:09:18.189Z,17.10
2022-08-27T18:11:45.259Z,17.10
2022-08-27T18:14:12.698Z,17.10
2022-08-27T18:16:45.370Z,17.10
2022-08-27T18:19:12.225Z,17.00
2022-08-27T18:21:46.209Z,17.10
2022-08-27T18:24:14.459Z,17.00
2022-08-27T18:26:41.301Z,16.90
2022-08-27T18:29:08.131Z,16.80
2022-08-27T18:31:35.005Z,16.60
2022-08-27T18:34:02.363Z,16.50
2022-08-27T18:36:29.804Z,16.50
2022-08-27T18:38:56.660Z,16.40
2022-08-27T18:41:25.303Z,16.30
2022-08-27T18:43:52.819Z,16.20
2022-08-27T18:46:19.535Z,16.30
2022-08-27T18:48:46.305Z,16.40
2022-08-27T18:51:16.111Z,16.50
2022-08-27T18:53:44.295Z,16.60
2022-08-27T18:56:16.618Z,16.80
2022-08-27T18:58:43.696Z,17.00
2022-08-27T19:01:13.539Z,17.00
2022-08-27T19:03:45.511Z,17.10
2022-08-27T19:06:12.991Z,17.10
2022-08-27T19:08:40.258Z,17.20
2022-08-27T19:11:07.035Z,17.20
2022-08-27T19:13:34.001Z,17.10
2022-08-27T19:16:08.286Z,17.00
2022-08-27T19:18:37.953Z,16.80
2022-08-27T19:21:05.909Z,16.70
2022-08-27T19:23:33.655Z,16.70
2022-08-27T19:26:01.583Z,16.60
2022-08-27T19:28:39.210Z,16.60
2022-08-27T19:31:08.314Z,16.60
2022-08-27T19:33:36.154Z,16.60
2022-08-27T19:36:03.450Z,16.70
2022-08-27T19:38:31.713Z,16.70
2022-08-27T19:41:00.010Z,16.50
2022-08-27T19:43:26.787Z,16.50
2022-08-27T19:45:55.198Z,16.40
2022-08-27T19:48:22.109Z,16.40
2022-08-27T19:50:49.220Z,16.40
2022-08-27T19:53:17.999Z,16.50
2022-08-27T19:55:45.985Z,16.60
2022-08-27T19:58:14.146Z,16.60
2022-08-27T20:00:41.606Z,16.60
2022-08-27T20:03:09.200Z,16.60
2022-08-27T20:05:36.521Z,16.60
2022-08-27T20:08:04.659Z,16.60
2022-08-27T20:10:36.521Z,16.70
2022-08-27T20:13:04.630Z,16.70
2022-08-27T20:15:31.875Z,16.60
2022-08-27T20:17:59.352Z,16.60
2022-08-27T20:20:27.759Z,16.60
2022-08-27T20:22:55.820Z,16.60
2022-08-27T20:25:23.334Z,16.50
2022-08-27T20:27:50.698Z,16.60
2022-08-27T20:30:19.889Z,16.60
2022-08-27T20:32:47.230Z,16.50
2022-08-27T20:35:15.614Z,16.50
2022-08-27T20:37:42.886Z,16.60
2022-08-27T20:40:13.913Z,16.60
2022-08-27T20:42:40.761Z,16.60
2022-08-27T20:45:11.904Z,16.60
2022-08-27T20:47:40.655Z,16.70
2022-08-27T20:50:09.130Z,16.70
2022-08-27T20:52:39.362Z,16.60
2022-08-27T20:55:06.752Z,16.60
2022-08-27T20:57:33.692Z,16.60
2022-08-27T21:00:19.107Z,16.50
2022-08-27T21:02:46.966Z,16.30
2022-08-27T21:05:15.840Z,16.20
2022-08-27T21:07:42.538Z,16.10
2022-08-27T21:10:09.595Z,16.10
2022-08-27T21:12:36.600Z,16.10
2022-08-27T21:15:05.381Z,16.20
2022-08-27T21:17:32.107Z,16.10
2022-08-27T21:19:59.303Z,16.10
2022-08-27T21:22:28.018Z,16.00
2022-08-27T21:24:55.202Z,16.00
2022-08-27T21:27:22.345Z,16.00
2022-08-27T21:29:49.394Z,16.00
2022-08-27T21:32:16.674Z,16.00
2022-08-27T21:34:43.453Z,15.90
2022-08-27T21:37:12.168Z,15.80
2022-08-27T21:39:40.164Z,15.80
2022-08-27T21:42:07.794Z,15.70
2022-08-27T21:44:34.707Z,15.70
2022-08-27T21:47:03.720Z,15.80
2022-08-27T21:49:32.373Z,15.80
2022-08-27T21:52:04.707Z,15.80
2022-08-27T21:54:33.385Z,15.70
2022-08-27T21:57:00.667Z,15.80
2022-08-27T21:59:27.389Z,15.80
2022-08-27T22:02:00.625Z,15.80
2022-08-27T22:04:30.871Z,15.70
2022-08-27T22:06:59.050Z,15.70
2022-08-27T22:09:26.463Z,15.70
2022-08-27T22:11:53.875Z,15.70
2022-08-27T22:14:20.575Z,15.60
2022-08-27T22:16:47.591Z,15.70
2022-08-27T22:19:14.279Z,15.70
2022-08-27T22:21:40.973Z,15.70
2022-08-27T22:24:08.031Z,15.60
2022-08-27T22:26:35.068Z,15.60
2022-08-27T22:29:03.766Z,15.50
2022-08-27T22:31:32.520Z,15.50
2022-08-27T22:34:00.998Z,15.40
2022-08-27T22:36:28.524Z,15.30
2022-08-27T22:38:59.789Z,15.30
2022-08-27T22:41:30.390Z,15.40
2022-08-27T22:43:59.538Z,15.50
2022-08-27T22:46:26.360Z,15.60
2022-08-27T22:48:53.190Z,15.60
2022-08-27T22:51:19.862Z,15.70
2022-08-27T22:53:46.761Z,15.70
2022-08-27T22:56:13.805Z,15.80
2022-08-27T22:58:41.099Z,15.70
2022-08-27T23:01:13.490Z,15.70
2022-08-27T23:03:40.510Z,15.70
2022-08-27T23:06:07.407Z,15.70
2022-08-27T23:08:34.170Z,15.70
2022-08-27T23:11:03.383Z,15.70
2022-08-27T23:13:31.539Z,15.70
2022-08-27T23:15:59.706Z,15.80
2022-08-27T23:18:26.498Z,15.80
2022-08-27T23:20:53.220Z,15.90
2022-08-27T23:23:20.152Z,15.90
2022-08-27T23:26:05.542Z,15.80
2022-08-27T23:28:32.302Z,15.80
2022-08-27T23:30:59.350Z,15.80
2022-08-27T23:33:26.533Z,15.70
2022-08-27T23:35:53.223Z,15.60
2022-08-27T23:38:20.848Z,15.60
2022-08-27T23:40:49.230Z,15.60
2022-08-27T23:43:17.329Z,15.60
2022-08-27T23:45:44.075Z,15.60
2022-08-27T23:48:11.474Z,15.50
2022-08-27T23:50:38.830Z,15.50
2022-08-27T23:53:06.349Z,15.50
2022-08-27T23:55:33.910Z,15.40
2022-08-27T23:58:01.417Z,15.40
